createdAt,value
2023-10-20T00:01:56.063Z,98011.53
2023-10-20T00:07:01.923Z,98001.66
2023-10-20T00:12:09.531Z,97996.59
2023-10-20T00:17:14.360Z,97980.31
2023-10-20T00:22:19.013Z,97986.53
2023-10-20T00:27:25.000Z,97985.25
2023-10-20T00:32:32.980Z,97988.06
2023-10-20T00:37:38.952Z,97991.28
2023-10-20T00:42:45.341Z,97968.50
2023-10-20T00:47:50.739Z,97957.38
2023-10-20T00:52:56.231Z,97938.25
2023-10-20T00:58:02.693Z,97928.75
2023-10-20T01:03:09.262Z,97929.16
2023-10-20T01:08:18.277Z,97922.91
2023-10-20T01:13:25.309Z,97907.81
2023-10-20T01:18:30.295Z,97903.59
2023-10-20T01:23:40.394Z,97900.53
2023-10-20T01:28:48.001Z,97897.53
2023-10-20T01:33:53.042Z,97888.25
2023-10-20T01:38:58.977Z,97883.00
2023-10-20T01:44:05.159Z,97870.53
2023-10-20T01:49:10.259Z,97858.66
2023-10-20T01:54:16.223Z,97853.41
2023-10-20T01:59:22.810Z,97850.41
2023-10-20T02:04:27.459Z,97846.00
2023-10-20T02:09:36.029Z,97847.16
2023-10-20T02:14:45.387Z,97828.25
2023-10-20T02:19:53.234Z,97833.88
2023-10-20T02:25:02.085Z,97825.03
2023-10-20T02:30:10.215Z,97814.56
2023-10-20T02:35:15.908Z,97808.53
2023-10-20T02:40:20.830Z,97806.50
2023-10-20T02:45:27.700Z,97815.78
2023-10-20T02:50:33.590Z,97813.19
2023-10-20T02:55:39.912Z,97818.81
2023-10-20T03:00:47.645Z,97816.00
2023-10-20T03:05:53.419Z,97804.31
2023-10-20T03:10:58.227Z,97801.91
2023-10-20T03:16:04.482Z,97801.13
2023-10-20T03:21:12.032Z,97806.59
2023-10-20T03:26:16.400Z,97804.97
2023-10-20T03:31:23.794Z,97790.88
2023-10-20T03:36:29.254Z,97769.72
2023-10-20T03:41:37.919Z,97769.91
2023-10-20T03:47:01.766Z,97761.66
2023-10-20T03:52:08.613Z,97761.47
2023-10-20T03:57:20.440Z,97762.63
2023-10-20T04:02:39.350Z,97759.59
2023-10-20T04:07:48.716Z,97742.88
2023-10-20T04:13:05.747Z,97739.81
2023-10-20T04:18:12.149Z,97738.63
2023-10-20T04:23:17.223Z,97724.94
2023-10-20T04:28:31.867Z,97721.91
2023-10-20T04:34:11.574Z,97735.41
2023-10-20T04:39:33.748Z,97728.94
2023-10-20T04:45:00.640Z,97706.59
2023-10-20T04:50:49.660Z,97693.50
2023-10-20T04:56:02.563Z,97683.16
2023-10-20T05:01:17.836Z,97683.75
2023-10-20T05:06:59.857Z,97665.03
2023-10-20T05:12:06.765Z,97678.25
2023-10-20T05:17:23.066Z,97673.22
2023-10-20T05:22:33.224Z,97664.56
2023-10-20T05:27:42.893Z,97638.00
2023-10-20T05:32:50.816Z,97635.53
2023-10-20T05:37:57.413Z,97624.31
2023-10-20T05:43:04.694Z,97625.28
2023-10-20T05:48:12.400Z,97624.66
2023-10-20T05:53:18.354Z,97617.38
2023-10-20T05:58:23.556Z,97615.94
2023-10-20T06:03:28.710Z,97613.09
2023-10-20T06:08:38.226Z,97625.56
2023-10-20T06:13:47.980Z,97611.91
2023-10-20T06:18:52.140Z,97616.16
2023-10-20T06:24:00.159Z,97606.13
2023-10-20T06:29:22.893Z,97594.81
2023-10-20T06:34:32.228Z,97592.41
2023-10-20T06:39:41.759Z,97579.56
2023-10-20T06:44:50.641Z,97567.47
2023-10-20T06:49:59.204Z,97570.28
2023-10-20T06:55:36.369Z,97560.06
2023-10-20T07:00:36.077Z,97534.13
2023-10-20T07:05:41.406Z,97530.50
2023-10-20T07:10:48.993Z,97542.97
2023-10-20T07:15:58.281Z,97550.22
2023-10-20T07:21:05.010Z,97527.09
2023-10-20T07:26:15.056Z,97511.00
2023-10-20T07:31:23.113Z,97501.56
2023-10-20T07:36:29.527Z,97481.47
2023-10-20T07:41:36.851Z,97484.28
2023-10-20T07:46:43.250Z,97471.81
2023-10-20T07:51:47.572Z,97474.44
2023-10-20T07:56:55.491Z,97471.63
2023-10-20T08:02:00.735Z,97468.22
2023-10-20T08:07:06.646Z,97473.63
2023-10-20T08:12:15.387Z,97434.63
2023-10-20T08:17:20.430Z,97447.09
2023-10-20T08:22:28.194Z,97456.34
2023-10-20T08:27:38.395Z,97447.94
2023-10-20T08:32:43.967Z,97464.00
2023-10-20T08:37:48.458Z,97452.13
2023-10-20T08:42:57.497Z,97435.66
2023-10-20T08:48:05.078Z,97426.19
2023-10-20T08:53:14.950Z,97399.03
2023-10-20T08:58:26.319Z,97379.91
2023-10-20T09:03:40.617Z,97388.56
2023-10-20T09:08:55.458Z,97375.69
2023-10-20T09:14:03.149Z,97361.78
2023-10-20T09:19:07.667Z,97351.94
2023-10-20T09:24:14.292Z,97367.66
2023-10-20T09:29:22.783Z,97374.91
2023-10-20T09:34:28.667Z,97368.84
2023-10-20T09:39:44.777Z,97360.81
2023-10-20T09:45:07.956Z,97365.22
2023-10-20T09:50:20.709Z,97373.69
2023-10-20T09:55:29.205Z,97390.38
2023-10-20T10:00:40.749Z,97392.59
2023-10-20T10:05:47.116Z,97413.53
2023-10-20T10:10:53.907Z,97430.59
2023-10-20T10:16:03.052Z,97436.84
2023-10-20T10:21:37.391Z,97426.38
2023-10-20T10:26:52.597Z,97427.78
2023-10-20T10:32:09.167Z,97422.16
2023-10-20T10:37:15.367Z,97419.94
2023-10-20T10:42:26.602Z,97428.81
2023-10-20T10:47:46.546Z,97452.34
2023-10-20T10:52:57.314Z,97435.22
2023-10-20T10:58:04.642Z,97406.28
2023-10-20T11:03:12.301Z,97399.44
2023-10-20T11:08:20.234Z,97391.38
2023-10-20T11:13:26.308Z,97403.44
2023-10-20T11:18:36.748Z,97394.22
2023-10-20T11:23:40.916Z,97370.28
2023-10-20T11:28:46.664Z,97366.41
2023-10-20T11:33:53.122Z,97351.13
2023-10-20T11:39:02.842Z,97347.31
2023-10-20T11:44:08.344Z,97352.72
2023-10-20T11:49:14.346Z,97347.50
2023-10-20T11:54:35.998Z,97328.19
2023-10-20T11:59:40.964Z,97317.13
2023-10-20T12:04:52.262Z,97312.72
2023-10-20T12:09:57.071Z,97285.16
2023-10-20T12:15:02.009Z,97273.91
2023-10-20T12:20:36.024Z,97286.78
2023-10-20T12:25:40.548Z,97279.19
2023-10-20T12:30:46.344Z,97275.56
2023-10-20T12:35:55.318Z,97293.09
2023-10-20T12:40:59.683Z,97292.28
2023-10-20T12:46:08.379Z,97288.47
2023-10-20T12:51:16.350Z,97286.63
2023-10-20T12:56:20.611Z,97287.47
2023-10-20T13:01:25.873Z,97268.34
2023-10-20T13:06:42.626Z,97250.88
2023-10-20T13:11:57.541Z,97241.44
2023-10-20T13:17:11.832Z,97194.19
2023-10-20T13:22:17.493Z,97157.41
2023-10-20T13:27:22.064Z,97183.75
2023-10-20T13:32:26.639Z,97164.03
2023-10-20T13:37:34.707Z,97188.75
2023-10-20T13:42:39.833Z,97193.78
2023-10-20T13:47:43.998Z,97215.72
2023-10-20T13:52:50.243Z,97220.50
2023-10-20T13:57:55.197Z,97198.63
2023-10-20T14:03:01.083Z,97234.00
2023-10-20T14:08:07.761Z,97252.06
2023-10-20T14:13:14.051Z,97259.91
2023-10-20T14:18:22.825Z,97260.31
2023-10-20T14:23:34.647Z,97252.88
2023-10-20T14:28:41.927Z,97267.75
2023-10-20T14:33:50.445Z,97262.31
2023-10-20T14:39:00.716Z,97248.06
2023-10-20T14:44:09.057Z,97263.72
2023-10-20T14:49:14.638Z,97276.00
2023-10-20T14:54:25.082Z,97258.69
2023-10-20T14:59:33.396Z,97265.13
2023-10-20T15:04:47.175Z,97257.88
2023-10-20T15:09:55.389Z,97275.38
2023-10-20T15:15:02.302Z,97297.47
2023-10-20T15:20:06.657Z,97291.25
2023-10-20T15:25:13.765Z,97296.25
2023-10-20T15:30:17.861Z,97297.66
2023-10-20T15:35:28.105Z,97282.59
2023-10-20T15:40:33.556Z,97302.91
2023-10-20T15:45:39.733Z,97316.38
2023-10-20T15:50:51.047Z,97327.66
2023-10-20T15:55:57.224Z,97356.78
2023-10-20T16:01:01.466Z,97337.66
2023-10-20T16:06:13.283Z,97340.50
2023-10-20T16:11:20.433Z,97350.78
2023-10-20T16:16:25.237Z,97346.75
2023-10-20T16:21:36.814Z,97332.47
2023-10-20T16:26:42.140Z,97340.91
2023-10-20T16:31:50.654Z,97337.28
2023-10-20T16:36:54.583Z,97357.19
2023-10-20T16:42:01.331Z,97373.28
2023-10-20T16:47:05.666Z,97369.03
2023-10-20T16:52:21.554Z,97379.13
2023-10-20T16:57:27.384Z,97399.22
2023-10-20T17:08:23.582Z,97390.53
2023-10-20T17:13:31.597Z,97391.97
2023-10-20T17:18:49.823Z,97402.25
2023-10-20T17:23:57.155Z,97417.28
2023-10-20T17:29:07.470Z,97394.97
2023-10-20T17:34:15.249Z,97406.03
2023-10-20T17:39:22.433Z,97421.75
2023-10-20T17:44:30.525Z,97422.78
2023-10-20T17:49:37.907Z,97438.06
2023-10-20T17:54:44.777Z,97412.09
2023-10-20T17:59:58.328Z,97421.13
2023-10-20T18:05:03.581Z,97437.44
2023-10-20T18:10:08.864Z,97435.22
2023-10-20T18:15:15.688Z,97430.38
2023-10-20T18:20:25.041Z,97450.13
2023-10-20T18:25:32.737Z,97438.81
2023-10-20T18:30:40.791Z,97443.44
2023-10-20T18:35:46.186Z,97439.81
2023-10-20T18:40:56.539Z,97457.72
2023-10-20T18:46:04.675Z,97455.50
2023-10-20T18:51:17.284Z,97470.56
2023-10-20T18:56:26.969Z,97476.22
2023-10-20T19:01:55.230Z,97479.00
2023-10-20T19:07:13.100Z,97482.44
2023-10-20T19:12:17.693Z,97475.38
2023-10-20T19:17:23.342Z,97486.66
2023-10-20T19:22:29.683Z,97482.59
2023-10-20T19:27:33.812Z,97483.44
2023-10-20T19:32:49.670Z,97481.00
2023-10-20T19:37:54.571Z,97498.91
2023-10-20T19:43:04.940Z,97488.81
2023-10-20T19:48:25.015Z,97488.41
2023-10-20T19:53:30.168Z,97502.72
2023-10-20T19:58:44.383Z,97504.13
2023-10-20T20:03:53.931Z,97504.94
2023-10-20T20:09:01.246Z,97495.06
2023-10-20T20:14:12.541Z,97511.19
2023-10-20T20:19:27.614Z,97524.88
2023-10-20T20:24:34.492Z,97515.38
2023-10-20T20:30:00.090Z,97512.34
2023-10-20T20:35:10.788Z,97533.25
2023-10-20T20:40:15.914Z,97549.38
2023-10-20T20:45:23.192Z,97546.16
2023-10-20T20:50:33.610Z,97557.41
2023-10-20T20:55:38.791Z,97566.69
2023-10-20T21:00:47.058Z,97567.84
2023-10-20T21:06:03.831Z,97556.13
2023-10-20T21:11:10.035Z,97582.56
2023-10-20T21:16:18.902Z,97580.91
2023-10-20T21:21:31.370Z,97584.91
2023-10-20T21:26:41.760Z,97589.53
2023-10-20T21:31:49.868Z,97590.91
2023-10-20T21:37:03.502Z,97599.72
2023-10-20T21:42:08.208Z,97600.28
2023-10-20T21:47:14.223Z,97590.56
2023-10-20T21:52:29.669Z,97602.25
2023-10-20T21:57:41.404Z,97599.63
2023-10-20T22:02:48.305Z,97597.19
2023-10-20T22:07:55.246Z,97593.19
2023-10-20T22:12:59.590Z,97594.03
2023-10-20T22:18:05.262Z,97600.13
2023-10-20T22:23:11.981Z,97612.66
2023-10-20T22:28:17.452Z,97613.25
2023-10-20T22:33:24.898Z,97622.28
2023-10-20T22:38:31.609Z,97622.25
2023-10-20T22:43:36.793Z,97635.16
2023-10-20T22:48:41.009Z,97650.88
2023-10-20T22:53:50.549Z,97653.03
2023-10-20T22:58:55.191Z,97658.84
2023-10-20T23:03:59.754Z,97665.66
2023-10-20T23:09:09.120Z,97678.13
2023-10-20T23:14:16.351Z,97686.97
2023-10-20T23:19:21.137Z,97663.69
2023-10-20T23:24:26.290Z,97670.50
2023-10-20T23:29:33.231Z,97690.28
2023-10-20T23:34:37.869Z,97703.41
2023-10-20T23:39:44.369Z,97688.47
2023-10-20T23:44:52.781Z,97705.25
2023-10-20T23:49:58.661Z,97718.59
2023-10-20T23:55:05.429Z,97734.34
